sensor_id;sensor_type;location;lat;lon;timestamp;pressure;altitude;pressure_sealevel;temperature
26158;BMP280;67284;44.782;10.282;2023-05-07T00:01:30;100903.13;;;18.03
26158;BMP280;67284;44.782;10.282;2023-05-07T00:06:23;100896.34;;;17.99
26158;BMP280;67284;44.782;10.282;2023-05-07T00:11:15;100901.72;;;17.94
26158;BMP280;67284;44.782;10.282;2023-05-07T00:16:07;100902.72;;;17.90
26158;BMP280;67284;44.782;10.282;2023-05-07T00:20:59;100897.75;;;17.84
26158;BMP280;67284;44.782;10.282;2023-05-07T00:25:51;100905.72;;;17.80
26158;BMP280;67284;44.782;10.282;2023-05-07T00:30:42;100909.41;;;17.74
26158;BMP280;67284;44.782;10.282;2023-05-07T00:35:34;100910.34;;;17.72
26158;BMP280;67284;44.782;10.282;2023-05-07T00:40:26;100919.22;;;17.67
26158;BMP280;67284;44.782;10.282;2023-05-07T00:45:18;100922.72;;;17.66
26158;BMP280;67284;44.782;10.282;2023-05-07T00:50:10;100922.81;;;17.63
26158;BMP280;67284;44.782;10.282;2023-05-07T00:55:05;100926.25;;;17.63
26158;BMP280;67284;44.782;10.282;2023-05-07T00:59:58;100924.66;;;17.61
26158;BMP280;67284;44.782;10.282;2023-05-07T01:04:50;100928.25;;;17.57
26158;BMP280;67284;44.782;10.282;2023-05-07T01:09:42;100940.38;;;17.58
26158;BMP280;67284;44.782;10.282;2023-05-07T01:14:34;100935.16;;;17.58
26158;BMP280;67284;44.782;10.282;2023-05-07T01:19:28;100930.91;;;17.55
26158;BMP280;67284;44.782;10.282;2023-05-07T01:24:21;100937.06;;;17.53
26158;BMP280;67284;44.782;10.282;2023-05-07T01:29:13;100937.94;;;17.52
26158;BMP280;67284;44.782;10.282;2023-05-07T01:34:06;100954.47;;;17.51
26158;BMP280;67284;44.782;10.282;2023-05-07T01:39:00;100955.38;;;17.50
26158;BMP280;67284;44.782;10.282;2023-05-07T01:43:52;100959.69;;;17.51
26158;BMP280;67284;44.782;10.282;2023-05-07T01:48:45;100954.59;;;17.48
26158;BMP280;67284;44.782;10.282;2023-05-07T01:53:39;100952.88;;;17.47
26158;BMP280;67284;44.782;10.282;2023-05-07T01:58:31;100946.06;;;17.43
26158;BMP280;67284;44.782;10.282;2023-05-07T02:03:23;100948.78;;;17.40
26158;BMP280;67284;44.782;10.282;2023-05-07T02:08:23;100954.78;;;17.42
26158;BMP280;67284;44.782;10.282;2023-05-07T02:13:15;100963.41;;;17.44
26158;BMP280;67284;44.782;10.282;2023-05-07T02:18:08;100959.03;;;17.44
26158;BMP280;67284;44.782;10.282;2023-05-07T02:23:01;100960.91;;;17.41
26158;BMP280;67284;44.782;10.282;2023-05-07T02:27:54;100971.44;;;17.36
26158;BMP280;67284;44.782;10.282;2023-05-07T02:32:52;100970.66;;;17.34
26158;BMP280;67284;44.782;10.282;2023-05-07T02:37:44;100972.31;;;17.37
26158;BMP280;67284;44.782;10.282;2023-05-07T02:42:37;100969.75;;;17.35
26158;BMP280;67284;44.782;10.282;2023-05-07T02:47:29;100974.94;;;17.35
26158;BMP280;67284;44.782;10.282;2023-05-07T02:52:23;100971.53;;;17.33
26158;BMP280;67284;44.782;10.282;2023-05-07T02:57:15;100969.81;;;17.34
26158;BMP280;67284;44.782;10.282;2023-05-07T03:02:07;100960.28;;;17.33
26158;BMP280;67284;44.782;10.282;2023-05-07T03:06:59;100962.00;;;17.34
26158;BMP280;67284;44.782;10.282;2023-05-07T03:11:51;100960.28;;;17.33
26158;BMP280;67284;44.782;10.282;2023-05-07T03:16:43;100955.97;;;17.32
26158;BMP280;67284;44.782;10.282;2023-05-07T03:21:35;100960.28;;;17.33
26158;BMP280;67284;44.782;10.282;2023-05-07T03:26:27;100959.44;;;17.32
26158;BMP280;67284;44.782;10.282;2023-05-07T03:31:19;100973.34;;;17.31
26158;BMP280;67284;44.782;10.282;2023-05-07T03:36:11;100980.28;;;17.31
26158;BMP280;67284;44.782;10.282;2023-05-07T03:41:03;100975.19;;;17.28
26158;BMP280;67284;44.782;10.282;2023-05-07T03:45:55;100976.09;;;17.27
26158;BMP280;67284;44.782;10.282;2023-05-07T03:50:50;100985.75;;;17.23
26158;BMP280;67284;44.782;10.282;2023-05-07T03:55:43;100986.66;;;17.21
26158;BMP280;67284;44.782;10.282;2023-05-07T04:00:36;100990.16;;;17.20
26158;BMP280;67284;44.782;10.282;2023-05-07T04:05:39;100991.06;;;17.19
26158;BMP280;67284;44.782;10.282;2023-05-07T04:10:31;100988.50;;;17.18
26158;BMP280;67284;44.782;10.282;2023-05-07T04:15:27;100995.53;;;17.14
26158;BMP280;67284;44.782;10.282;2023-05-07T04:20:20;100996.50;;;17.12
26158;BMP280;67284;44.782;10.282;2023-05-07T04:25:19;101006.19;;;17.07
26158;BMP280;67284;44.782;10.282;2023-05-07T04:30:12;101005.34;;;17.06
26158;BMP280;67284;44.782;10.282;2023-05-07T04:35:05;101011.44;;;17.05
26158;BMP280;67284;44.782;10.282;2023-05-07T04:39:58;101016.63;;;17.05
26158;BMP280;67284;44.782;10.282;2023-05-07T04:44:53;101018.34;;;17.06
26158;BMP280;67284;44.782;10.282;2023-05-07T04:49:46;101025.22;;;17.07
26158;BMP280;67284;44.782;10.282;2023-05-07T04:54:38;101026.16;;;17.06
26158;BMP280;67284;44.782;10.282;2023-05-07T04:59:32;101030.47;;;17.06
26158;BMP280;67284;44.782;10.282;2023-05-07T05:04:24;101033.97;;;17.06
26158;BMP280;67284;44.782;10.282;2023-05-07T05:09:16;101044.34;;;17.06
26158;BMP280;67284;44.782;10.282;2023-05-07T05:14:09;101039.16;;;17.06
26158;BMP280;67284;44.782;10.282;2023-05-07T05:19:02;101045.25;;;17.05
26158;BMP280;67284;44.782;10.282;2023-05-07T05:23:58;101048.72;;;17.04
26158;BMP280;67284;44.782;10.282;2023-05-07T05:28:50;101049.66;;;17.03
26158;BMP280;67284;44.782;10.282;2023-05-07T05:33:45;101049.72;;;17.00
26158;BMP280;67284;44.782;10.282;2023-05-07T05:38:37;101046.22;;;17.01
26158;BMP280;67284;44.782;10.282;2023-05-07T05:43:29;101047.94;;;17.02
26158;BMP280;67284;44.782;10.282;2023-05-07T05:48:22;101047.94;;;17.02
26158;BMP280;67284;44.782;10.282;2023-05-07T05:53:15;101054.84;;;17.03
26158;BMP280;67284;44.782;10.282;2023-05-07T05:58:08;101053.94;;;17.04
26158;BMP280;67284;44.782;10.282;2023-05-07T06:03:04;101040.03;;;17.05
26158;BMP280;67284;44.782;10.282;2023-05-07T06:07:56;101042.59;;;17.07
26158;BMP280;67284;44.782;10.282;2023-05-07T06:12:51;101036.44;;;17.09
26158;BMP280;67284;44.782;10.282;2023-05-07T06:17:43;101047.69;;;17.10
26158;BMP280;67284;44.782;10.282;2023-05-07T06:22:35;101050.16;;;17.14
26158;BMP280;67284;44.782;10.282;2023-05-07T06:27:27;101046.59;;;17.17
26158;BMP280;67284;44.782;10.282;2023-05-07T06:32:20;101052.69;;;17.17
26158;BMP280;67284;44.782;10.282;2023-05-07T06:37:13;101042.19;;;17.20
26158;BMP280;67284;44.782;10.282;2023-05-07T06:42:15;101036.06;;;17.21
26158;BMP280;67284;44.782;10.282;2023-05-07T06:47:10;101042.13;;;17.23
26158;BMP280;67284;44.782;10.282;2023-05-07T06:52:06;101048.94;;;17.27
26158;BMP280;67284;44.782;10.282;2023-05-07T06:56:58;101040.09;;;17.31
26158;BMP280;67284;44.782;10.282;2023-05-07T07:01:52;101037.56;;;17.29
26158;BMP280;67284;44.782;10.282;2023-05-07T07:06:45;101038.31;;;17.33
26158;BMP280;67284;44.782;10.282;2023-05-07T07:11:38;101036.59;;;17.32
26158;BMP280;67284;44.782;10.282;2023-05-07T07:16:31;101038.28;;;17.34
26158;BMP280;67284;44.782;10.282;2023-05-07T07:21:23;101041.72;;;17.35
26158;BMP280;67284;44.782;10.282;2023-05-07T07:26:15;101038.13;;;17.39
26158;BMP280;67284;44.782;10.282;2023-05-07T07:31:07;101022.34;;;17.43
26158;BMP280;67284;44.782;10.282;2023-05-07T07:35:59;101023.91;;;17.49
26158;BMP280;67284;44.782;10.282;2023-05-07T07:40:51;101027.44;;;17.48
26158;BMP280;67284;44.782;10.282;2023-05-07T07:45:43;101030.94;;;17.47
26158;BMP280;67284;44.782;10.282;2023-05-07T07:50:35;101023.81;;;17.52
26158;BMP280;67284;44.782;10.282;2023-05-07T07:55:39;101035.81;;;17.56
26158;BMP280;67284;44.782;10.282;2023-05-07T08:00:33;101037.63;;;17.54
26158;BMP280;67284;44.782;10.282;2023-05-07T08:05:25;101033.94;;;17.61
26158;BMP280;67284;44.782;10.282;2023-05-07T08:10:21;101037.09;;;17.69
26158;BMP280;67284;44.782;10.282;2023-05-07T08:15:18;101038.72;;;17.73
26158;BMP280;67284;44.782;10.282;2023-05-07T08:20:11;101041.09;;;17.78
26158;BMP280;67284;44.782;10.282;2023-05-07T08:25:04;101037.66;;;17.78
26158;BMP280;67284;44.782;10.282;2023-05-07T08:29:57;101041.59;;;17.89
26158;BMP280;67284;44.782;10.282;2023-05-07T08:34:49;101037.31;;;17.88
26158;BMP280;67284;44.782;10.282;2023-05-07T08:39:41;101043.41;;;17.87
26158;BMP280;67284;44.782;10.282;2023-05-07T08:44:41;101034.94;;;17.81
26158;BMP280;67284;44.782;10.282;2023-05-07T08:49:35;101038.69;;;17.98
26158;BMP280;67284;44.782;10.282;2023-05-07T08:54:28;101035.31;;;17.95
26158;BMP280;67284;44.782;10.282;2023-05-07T08:59:21;101027.16;;;18.05
26158;BMP280;67284;44.782;10.282;2023-05-07T09:04:14;101020.97;;;18.08
26158;BMP280;67284;44.782;10.282;2023-05-07T09:09:07;101022.91;;;18.03
26158;BMP280;67284;44.782;10.282;2023-05-07T09:13:59;101014.28;;;18.01
26158;BMP280;67284;44.782;10.282;2023-05-07T09:18:59;101020.25;;;18.04
26158;BMP280;67284;44.782;10.282;2023-05-07T09:23:55;101014.88;;;18.09
26158;BMP280;67284;44.782;10.282;2023-05-07T09:28:57;101020.13;;;18.07
26158;BMP280;67284;44.782;10.282;2023-05-07T09:33:50;101016.75;;;18.05
26158;BMP280;67284;44.782;10.282;2023-05-07T09:38:45;101009.59;;;18.10
26158;BMP280;67284;44.782;10.282;2023-05-07T09:43:39;101016.81;;;18.28
26158;BMP280;67284;44.782;10.282;2023-05-07T09:48:37;101005.38;;;18.32
26158;BMP280;67284;44.782;10.282;2023-05-07T09:53:31;101017.16;;;18.42
26158;BMP280;67284;44.782;10.282;2023-05-07T09:58:28;101005.91;;;18.41
26158;BMP280;67284;44.782;10.282;2023-05-07T10:03:21;100994.06;;;18.56
26158;BMP280;67284;44.782;10.282;2023-05-07T10:08:23;100998.28;;;18.81
26158;BMP280;67284;44.782;10.282;2023-05-07T10:13:19;100996.88;;;18.94
26158;BMP280;67284;44.782;10.282;2023-05-07T10:18:15;100986.84;;;19.06
26158;BMP280;67284;44.782;10.282;2023-05-07T10:23:13;100990.47;;;19.02
26158;BMP280;67284;44.782;10.282;2023-05-07T10:28:10;100997.16;;;19.09
26158;BMP280;67284;44.782;10.282;2023-05-07T10:33:09;100992.63;;;18.91
26158;BMP280;67284;44.782;10.282;2023-05-07T10:38:06;100986.38;;;18.95
26158;BMP280;67284;44.782;10.282;2023-05-07T10:43:02;100982.06;;;18.94
26158;BMP280;67284;44.782;10.282;2023-05-07T10:48:16;100985.50;;;18.96
26158;BMP280;67284;44.782;10.282;2023-05-07T10:53:29;100969.09;;;18.93
26158;BMP280;67284;44.782;10.282;2023-05-07T10:58:36;100962.78;;;18.98
26158;BMP280;67284;44.782;10.282;2023-05-07T11:04:12;100962.22;;;19.13
26158;BMP280;67284;44.782;10.282;2023-05-07T11:09:08;100975.03;;;19.39
26158;BMP280;67284;44.782;10.282;2023-05-07T11:14:08;100974.44;;;19.54
26158;BMP280;67284;44.782;10.282;2023-05-07T11:19:08;100962.03;;;19.59
26158;BMP280;67284;44.782;10.282;2023-05-07T11:24:07;100976.50;;;19.46
26158;BMP280;67284;44.782;10.282;2023-05-07T11:29:12;100964.16;;;19.30
26158;BMP280;67284;44.782;10.282;2023-05-07T11:34:07;100967.47;;;19.33
26158;BMP280;67284;44.782;10.282;2023-05-07T11:38:59;100960.97;;;19.43
26158;BMP280;67284;44.782;10.282;2023-05-07T11:43:56;100956.56;;;19.45
26158;BMP280;67284;44.782;10.282;2023-05-07T11:48:48;100954.91;;;19.42
26158;BMP280;67284;44.782;10.282;2023-05-07T11:53:42;100948.25;;;19.35
26158;BMP280;67284;44.782;10.282;2023-05-07T11:58:34;100943.88;;;19.36
26158;BMP280;67284;44.782;10.282;2023-05-07T12:03:26;100944.81;;;19.75
26158;BMP280;67284;44.782;10.282;2023-05-07T12:08:22;100946.31;;;20.00
26158;BMP280;67284;44.782;10.282;2023-05-07T12:13:18;100942.44;;;20.08
26158;BMP280;67284;44.782;10.282;2023-05-07T12:18:11;100938.03;;;19.90
26158;BMP280;67284;44.782;10.282;2023-05-07T12:23:03;100940.88;;;19.84
26158;BMP280;67284;44.782;10.282;2023-05-07T12:27:55;100943.69;;;20.00
26158;BMP280;67284;44.782;10.282;2023-05-07T12:32:54;100945.34;;;19.83
26158;BMP280;67284;44.782;10.282;2023-05-07T12:37:54;100937.72;;;19.77
26158;BMP280;67284;44.782;10.282;2023-05-07T12:42:46;100941.16;;;19.79
26158;BMP280;67284;44.782;10.282;2023-05-07T12:47:38;100939.16;;;19.83
26158;BMP280;67284;44.782;10.282;2023-05-07T12:52:30;100938.19;;;19.86
26158;BMP280;67284;44.782;10.282;2023-05-07T12:57:23;100927.81;;;19.84
26158;BMP280;67284;44.782;10.282;2023-05-07T13:02:14;100922.72;;;19.82
26158;BMP280;67284;44.782;10.282;2023-05-07T13:07:07;100911.25;;;20.05
26158;BMP280;67284;44.782;10.282;2023-05-07T13:11:59;100911.59;;;20.16
26158;BMP280;67284;44.782;10.282;2023-05-07T13:16:54;100908.41;;;20.46
26158;BMP280;67284;44.782;10.282;2023-05-07T13:21:46;100904.19;;;20.81
26158;BMP280;67284;44.782;10.282;2023-05-07T13:26:38;100901.66;;;20.96
26158;BMP280;67284;44.782;10.282;2023-05-07T13:31:29;100888.34;;;20.84
26158;BMP280;67284;44.782;10.282;2023-05-07T13:36:22;100882.13;;;20.86
26158;BMP280;67284;44.782;10.282;2023-05-07T13:41:14;100878.81;;;20.99
26158;BMP280;67284;44.782;10.282;2023-05-07T13:46:06;100877.97;;;21.16
26158;BMP280;67284;44.782;10.282;2023-05-07T13:50:58;100868.44;;;21.15
26158;BMP280;67284;44.782;10.282;2023-05-07T13:55:50;100875.44;;;20.97
26158;BMP280;67284;44.782;10.282;2023-05-07T14:00:42;100870.06;;;21.00
26158;BMP280;67284;44.782;10.282;2023-05-07T14:05:34;100858.97;;;21.12
26158;BMP280;67284;44.782;10.282;2023-05-07T14:10:27;100853.59;;;21.15
26158;BMP280;67284;44.782;10.282;2023-05-07T14:15:19;100846.03;;;21.26
26158;BMP280;67284;44.782;10.282;2023-05-07T14:20:12;100847.88;;;21.24
26158;BMP280;67284;44.782;10.282;2023-05-07T14:25:05;100847.88;;;21.24
26158;BMP280;67284;44.782;10.282;2023-05-07T14:29:57;100849.13;;;21.17
26158;BMP280;67284;44.782;10.282;2023-05-07T14:34:49;100850.59;;;21.23
26158;BMP280;67284;44.782;10.282;2023-05-07T14:39:41;100850.19;;;21.30
26158;BMP280;67284;44.782;10.282;2023-05-07T14:44:36;100849.28;;;21.31
26158;BMP280;67284;44.782;10.282;2023-05-07T14:49:28;100845.59;;;21.35
26158;BMP280;67284;44.782;10.282;2023-05-07T14:54:20;100834.78;;;21.41
26158;BMP280;67284;44.782;10.282;2023-05-07T14:59:12;100827.94;;;21.39
26158;BMP280;67284;44.782;10.282;2023-05-07T15:04:04;100833.03;;;21.25
26158;BMP280;67284;44.782;10.282;2023-05-07T15:08:56;100822.94;;;21.34
26158;BMP280;67284;44.782;10.282;2023-05-07T15:13:49;100821.63;;;21.42
26158;BMP280;67284;44.782;10.282;2023-05-07T15:18:41;100817.31;;;21.42
26158;BMP280;67284;44.782;10.282;2023-05-07T15:23:33;100815.41;;;21.28
26158;BMP280;67284;44.782;10.282;2023-05-07T15:28:25;100804.47;;;21.20
26158;BMP280;67284;44.782;10.282;2023-05-07T15:33:20;100798.00;;;21.27
26158;BMP280;67284;44.782;10.282;2023-05-07T15:38:12;100808.56;;;21.26
26158;BMP280;67284;44.782;10.282;2023-05-07T15:43:04;100825.00;;;21.28
26158;BMP280;67284;44.782;10.282;2023-05-07T15:47:56;100811.56;;;21.18
26158;BMP280;67284;44.782;10.282;2023-05-07T15:52:48;100814.03;;;21.21
26158;BMP280;67284;44.782;10.282;2023-05-07T15:57:40;100806.84;;;21.25
26158;BMP280;67284;44.782;10.282;2023-05-07T16:02:32;100803.72;;;21.18
26158;BMP280;67284;44.782;10.282;2023-05-07T16:07:24;100797.38;;;21.22
26158;BMP280;67284;44.782;10.282;2023-05-07T16:12:16;100799.47;;;21.33
26158;BMP280;67284;44.782;10.282;2023-05-07T16:17:09;100792.28;;;21.36
26158;BMP280;67284;44.782;10.282;2023-05-07T16:22:01;100784.69;;;21.32
26158;BMP280;67284;44.782;10.282;2023-05-07T16:26:53;100799.16;;;21.22
26158;BMP280;67284;44.782;10.282;2023-05-07T16:31:45;100808.09;;;21.18
26158;BMP280;67284;44.782;10.282;2023-05-07T16:36:36;100794.94;;;21.19
26158;BMP280;67284;44.782;10.282;2023-05-07T16:41:28;100800.78;;;21.24
26158;BMP280;67284;44.782;10.282;2023-05-07T16:46:20;100798.94;;;21.26
26158;BMP280;67284;44.782;10.282;2023-05-07T16:51:12;100799.25;;;21.20
26158;BMP280;67284;44.782;10.282;2023-05-07T16:56:05;100806.63;;;21.12
26158;BMP280;67284;44.782;10.282;2023-05-07T17:00:56;100804.03;;;21.12
26158;BMP280;67284;44.782;10.282;2023-05-07T17:05:48;100815.28;;;21.14
26158;BMP280;67284;44.782;10.282;2023-05-07T17:10:40;100813.72;;;21.10
26158;BMP280;67284;44.782;10.282;2023-05-07T17:15:32;100819.94;;;21.08
26158;BMP280;67284;44.782;10.282;2023-05-07T17:20:27;100817.56;;;21.03
26158;BMP280;67284;44.782;10.282;2023-05-07T17:25:19;100816.28;;;20.95
26158;BMP280;67284;44.782;10.282;2023-05-07T17:30:12;100823.72;;;20.86
26158;BMP280;67284;44.782;10.282;2023-05-07T17:35:05;100821.50;;;20.78
26158;BMP280;67284;44.782;10.282;2023-05-07T17:39:57;100834.19;;;20.67
26158;BMP280;67284;44.782;10.282;2023-05-07T17:44:49;100828.13;;;20.67
26158;BMP280;67284;44.782;10.282;2023-05-07T17:49:40;100834.94;;;20.71
26158;BMP280;67284;44.782;10.282;2023-05-07T17:54:32;100826.00;;;20.75
26158;BMP280;67284;44.782;10.282;2023-05-07T17:59:24;100838.31;;;20.73
26158;BMP280;67284;44.782;10.282;2023-05-07T18:04:16;100843.91;;;20.65
26158;BMP280;67284;44.782;10.282;2023-05-07T18:09:10;100846.09;;;20.56
26158;BMP280;67284;44.782;10.282;2023-05-07T18:14:02;100847.25;;;20.50
26158;BMP280;67284;44.782;10.282;2023-05-07T18:18:54;100856.28;;;20.43
26158;BMP280;67284;44.782;10.282;2023-05-07T18:23:47;100855.94;;;20.33
26158;BMP280;67284;44.782;10.282;2023-05-07T18:28:39;100858.56;;;20.14
26158;BMP280;67284;44.782;10.282;2023-05-07T18:33:31;100866.63;;;20.10
26158;BMP280;67284;44.782;10.282;2023-05-07T18:38:23;100858.78;;;20.10
26158;BMP280;67284;44.782;10.282;2023-05-07T18:43:17;100860.41;;;20.12
26158;BMP280;67284;44.782;10.282;2023-05-07T18:48:09;100865.19;;;20.21
26158;BMP280;67284;44.782;10.282;2023-05-07T18:53:01;100865.06;;;20.24
26158;BMP280;67284;44.782;10.282;2023-05-07T18:57:53;100868.59;;;20.23
26158;BMP280;67284;44.782;10.282;2023-05-07T19:02:45;100883.34;;;20.24
26158;BMP280;67284;44.782;10.282;2023-05-07T19:07:37;100877.44;;;20.21
26158;BMP280;67284;44.782;10.282;2023-05-07T19:12:29;100879.75;;;20.08
26158;BMP280;67284;44.782;10.282;2023-05-07T19:17:21;100892.28;;;20.00
26158;BMP280;67284;44.782;10.282;2023-05-07T19:22:14;100893.63;;;19.90
26158;BMP280;67284;44.782;10.282;2023-05-07T19:27:06;100906.16;;;19.83
26158;BMP280;67284;44.782;10.282;2023-05-07T19:31:59;100913.41;;;19.76
26158;BMP280;67284;44.782;10.282;2023-05-07T19:36:52;100914.44;;;19.72
26158;BMP280;67284;44.782;10.282;2023-05-07T19:41:44;100916.22;;;19.72
26158;BMP280;67284;44.782;10.282;2023-05-07T19:46:35;100913.69;;;19.70
26158;BMP280;67284;44.782;10.282;2023-05-07T19:51:31;100919.75;;;19.71
26158;BMP280;67284;44.782;10.282;2023-05-07T19:56:23;100927.44;;;19.74
26158;BMP280;67284;44.782;10.282;2023-05-07T20:01:16;100919.59;;;19.74
26158;BMP280;67284;44.782;10.282;2023-05-07T20:06:08;100912.66;;;19.73
26158;BMP280;67284;44.782;10.282;2023-05-07T20:10:59;100908.31;;;19.73
26158;BMP280;67284;44.782;10.282;2023-05-07T20:15:56;100928.88;;;19.61
26158;BMP280;67284;44.782;10.282;2023-05-07T20:20:48;100941.53;;;19.50
26158;BMP280;67284;44.782;10.282;2023-05-07T20:25:40;100928.81;;;19.42
26158;BMP280;67284;44.782;10.282;2023-05-07T20:30:33;100947.44;;;19.33
26158;BMP280;67284;44.782;10.282;2023-05-07T20:35:26;100953.00;;;19.26
26158;BMP280;67284;44.782;10.282;2023-05-07T20:40:17;100953.13;;;19.23
26158;BMP280;67284;44.782;10.282;2023-05-07T20:45:10;100960.16;;;19.21
26158;BMP280;67284;44.782;10.282;2023-05-07T20:50:02;100952.44;;;19.18
26158;BMP280;67284;44.782;10.282;2023-05-07T20:54:54;100960.25;;;19.18
26158;BMP280;67284;44.782;10.282;2023-05-07T20:59:46;100965.47;;;19.18
26158;BMP280;67284;44.782;10.282;2023-05-07T21:04:38;100968.16;;;19.17
26158;BMP280;67284;44.782;10.282;2023-05-07T21:09:29;100970.94;;;19.12
26158;BMP280;67284;44.782;10.282;2023-05-07T21:14:21;100970.25;;;19.09
26158;BMP280;67284;44.782;10.282;2023-05-07T21:19:13;100966.91;;;19.05
26158;BMP280;67284;44.782;10.282;2023-05-07T21:24:05;100971.44;;;19.00
26158;BMP280;67284;44.782;10.282;2023-05-07T21:28:57;100968.97;;;18.96
26158;BMP280;67284;44.782;10.282;2023-05-07T21:33:49;100986.44;;;18.94
26158;BMP280;67284;44.782;10.282;2023-05-07T21:38:43;100993.50;;;18.92
26158;BMP280;67284;44.782;10.282;2023-05-07T21:43:35;100988.41;;;18.89
26158;BMP280;67284;44.782;10.282;2023-05-07T21:48:27;101001.53;;;18.86
26158;BMP280;67284;44.782;10.282;2023-05-07T21:53:19;101002.53;;;18.83
26158;BMP280;67284;44.782;10.282;2023-05-07T21:58:11;101011.31;;;18.81
26158;BMP280;67284;44.782;10.282;2023-05-07T22:03:02;101020.91;;;18.80
26158;BMP280;67284;44.782;10.282;2023-05-07T22:07:54;101020.09;;;18.78
26158;BMP280;67284;44.782;10.282;2023-05-07T22:12:46;101030.56;;;18.77
26158;BMP280;67284;44.782;10.282;2023-05-07T22:17:38;101043.66;;;18.76
26158;BMP280;67284;44.782;10.282;2023-05-07T22:22:30;101052.44;;;18.73
26158;BMP280;67284;44.782;10.282;2023-05-07T22:27:22;101048.13;;;18.72
26158;BMP280;67284;44.782;10.282;2023-05-07T22:32:13;101060.38;;;18.70
26158;BMP280;67284;44.782;10.282;2023-05-07T22:37:05;101065.72;;;18.67
26158;BMP280;67284;44.782;10.282;2023-05-07T22:41:57;101059.66;;;18.67
26158;BMP280;67284;44.782;10.282;2023-05-07T22:46:49;101069.28;;;18.65
26158;BMP280;67284;44.782;10.282;2023-05-07T22:51:41;101067.56;;;18.64
26158;BMP280;67284;44.782;10.282;2023-05-07T22:56:33;101075.38;;;18.64
26158;BMP280;67284;44.782;10.282;2023-05-07T23:01:25;101075.38;;;18.64
26158;BMP280;67284;44.782;10.282;2023-05-07T23:06:17;101074.56;;;18.63
26158;BMP280;67284;44.782;10.282;2023-05-07T23:11:09;101065.94;;;18.61
26158;BMP280;67284;44.782;10.282;2023-05-07T23:16:01;101070.28;;;18.61
26158;BMP280;67284;44.782;10.282;2023-05-07T23:20:53;101065.06;;;18.61
26158;BMP280;67284;44.782;10.282;2023-05-07T23:25:45;101081.59;;;18.61
26158;BMP280;67284;44.782;10.282;2023-05-07T23:30:38;101081.59;;;18.61
26158;BMP280;67284;44.782;10.282;2023-05-07T23:35:30;101095.50;;;18.60
26158;BMP280;67284;44.782;10.282;2023-05-07T23:40:22;101098.19;;;18.59
26158;BMP280;67284;44.782;10.282;2023-05-07T23:45:14;101101.69;;;18.58
26158;BMP280;67284;44.782;10.282;2023-05-07T23:50:06;101089.53;;;18.57
26158;BMP280;67284;44.782;10.282;2023-05-07T23:54:58;101080.06;;;18.56
26158;BMP280;67284;44.782;10.282;2023-05-07T23:59:50;101087.88;;;18.56
